Taqah, Oman
Current Conditions -  °F | °C
As of 6:50 AM on Thursday 23 Oct 2014 (Local Time) from OOSA Reporting Station
Clear Clear  
Wind Chill: 75°   Ceiling: Unl
Heat Index: 75°   Visibility: 6mi
Dew Point: 55°   Wind: 2mph
Humidity: 50%   Direction: NA
Pressure: 29.94"   Gusts: NA
Location:  17.04°N, 54.39°E
Report Text: OOSA 230250Z VRB02KT CAVOK 24/13 Q1014 NOSIG
Loading
Personal Weather Stations






























Interactive Weather Map
Tropical Storm Tracking
New forecast layout! Learn more

10-Day Weather Forecast

Advertisements
Track Severe Weather on mobile